sensor_id;sensor_type;location;lat;lon;timestamp;temperature;humidity
336;DHT22;156;48.738;9.228;2023-01-01T00:00:13;12.80;1.00
336;DHT22;156;48.738;9.228;2023-01-01T00:02:40;12.90;1.00
336;DHT22;156;48.738;9.228;2023-01-01T00:05:07;12.90;1.00
336;DHT22;156;48.738;9.228;2023-01-01T00:07:35;12.90;1.00
336;DHT22;156;48.738;9.228;2023-01-01T00:10:03;13.00;1.00
336;DHT22;156;48.738;9.228;2023-01-01T00:12:50;13.00;1.00
336;DHT22;156;48.738;9.228;2023-01-01T00:15:17;13.00;1.00
336;DHT22;156;48.738;9.228;2023-01-01T00:17:44;13.00;1.00
336;DHT22;156;48.738;9.228;2023-01-01T00:20:11;13.00;1.00
336;DHT22;156;48.738;9.228;2023-01-01T00:22:40;13.10;1.00
336;DHT22;156;48.738;9.228;2023-01-01T00:25:07;13.10;1.00
336;DHT22;156;48.738;9.228;2023-01-01T00:27:34;13.10;1.00
336;DHT22;156;48.738;9.228;2023-01-01T00:30:01;13.10;1.00
336;DHT22;156;48.738;9.228;2023-01-01T00:32:28;13.10;1.00
336;DHT22;156;48.738;9.228;2023-01-01T00:34:55;13.10;1.00
336;DHT22;156;48.738;9.228;2023-01-01T00:37:22;13.10;1.00
336;DHT22;156;48.738;9.228;2023-01-01T00:39:53;13.10;1.00
336;DHT22;156;48.738;9.228;2023-01-01T00:42:19;13.10;1.00
336;DHT22;156;48.738;9.228;2023-01-01T00:44:46;13.10;1.00
336;DHT22;156;48.738;9.228;2023-01-01T00:47:13;13.10;1.00
336;DHT22;156;48.738;9.228;2023-01-01T00:49:40;13.10;1.00
336;DHT22;156;48.738;9.228;2023-01-01T00:52:07;13.20;1.00
336;DHT22;156;48.738;9.228;2023-01-01T00:54:34;13.10;1.00
336;DHT22;156;48.738;9.228;2023-01-01T00:57:02;13.20;1.00
336;DHT22;156;48.738;9.228;2023-01-01T00:59:29;13.10;1.00
336;DHT22;156;48.738;9.228;2023-01-01T01:01:55;13.10;1.00
336;DHT22;156;48.738;9.228;2023-01-01T01:04:24;13.20;1.00
336;DHT22;156;48.738;9.228;2023-01-01T01:06:51;13.20;1.00
336;DHT22;156;48.738;9.228;2023-01-01T01:09:18;13.10;1.00
336;DHT22;156;48.738;9.228;2023-01-01T01:11:44;13.10;1.00
336;DHT22;156;48.738;9.228;2023-01-01T01:14:13;13.10;1.00
336;DHT22;156;48.738;9.228;2023-01-01T01:16:40;13.10;1.00
336;DHT22;156;48.738;9.228;2023-01-01T01:19:07;13.20;1.00
336;DHT22;156;48.738;9.228;2023-01-01T01:21:38;13.10;1.00
336;DHT22;156;48.738;9.228;2023-01-01T01:24:05;13.20;1.00
336;DHT22;156;48.738;9.228;2023-01-01T01:26:33;13.10;1.00
336;DHT22;156;48.738;9.228;2023-01-01T01:29:01;13.10;1.00
336;DHT22;156;48.738;9.228;2023-01-01T01:31:31;13.10;1.00
336;DHT22;156;48.738;9.228;2023-01-01T01:33:59;13.00;1.00
336;DHT22;156;48.738;9.228;2023-01-01T01:36:26;13.00;1.00
336;DHT22;156;48.738;9.228;2023-01-01T01:38:53;13.00;1.00
336;DHT22;156;48.738;9.228;2023-01-01T01:41:22;12.90;1.00
336;DHT22;156;48.738;9.228;2023-01-01T01:43:54;12.90;1.00
336;DHT22;156;48.738;9.228;2023-01-01T01:46:26;12.90;1.00
336;DHT22;156;48.738;9.228;2023-01-01T01:48:57;12.90;1.00
336;DHT22;156;48.738;9.228;2023-01-01T01:51:28;12.80;1.00
336;DHT22;156;48.738;9.228;2023-01-01T01:53:59;12.90;1.00
336;DHT22;156;48.738;9.228;2023-01-01T01:56:33;13.00;1.00
336;DHT22;156;48.738;9.228;2023-01-01T01:59:02;12.90;1.00
336;DHT22;156;48.738;9.228;2023-01-01T02:01:29;12.90;1.00
336;DHT22;156;48.738;9.228;2023-01-01T02:03:59;12.90;1.00
336;DHT22;156;48.738;9.228;2023-01-01T02:06:28;12.90;1.00
336;DHT22;156;48.738;9.228;2023-01-01T02:08:56;13.00;1.00
336;DHT22;156;48.738;9.228;2023-01-01T02:11:23;13.10;1.00
336;DHT22;156;48.738;9.228;2023-01-01T02:13:51;13.20;1.00
336;DHT22;156;48.738;9.228;2023-01-01T02:16:22;13.30;1.00
336;DHT22;156;48.738;9.228;2023-01-01T02:18:53;13.30;1.00
336;DHT22;156;48.738;9.228;2023-01-01T02:21:26;13.40;1.00
336;DHT22;156;48.738;9.228;2023-01-01T02:24:04;13.40;1.00
336;DHT22;156;48.738;9.228;2023-01-01T02:26:52;13.40;1.00
336;DHT22;156;48.738;9.228;2023-01-01T02:29:32;13.40;1.00
336;DHT22;156;48.738;9.228;2023-01-01T02:32:09;13.40;1.00
336;DHT22;156;48.738;9.228;2023-01-01T02:34:39;13.30;1.00
336;DHT22;156;48.738;9.228;2023-01-01T02:37:10;13.30;1.00
336;DHT22;156;48.738;9.228;2023-01-01T02:39:42;13.30;1.00
336;DHT22;156;48.738;9.228;2023-01-01T02:42:10;13.40;1.00
336;DHT22;156;48.738;9.228;2023-01-01T02:44:42;13.40;1.00
336;DHT22;156;48.738;9.228;2023-01-01T02:47:13;13.40;1.00
336;DHT22;156;48.738;9.228;2023-01-01T02:49:47;13.60;1.00
336;DHT22;156;48.738;9.228;2023-01-01T02:52:27;13.60;1.00
336;DHT22;156;48.738;9.228;2023-01-01T02:55:03;13.50;1.00
336;DHT22;156;48.738;9.228;2023-01-01T02:57:36;13.40;1.00
336;DHT22;156;48.738;9.228;2023-01-01T03:00:08;13.50;1.00
336;DHT22;156;48.738;9.228;2023-01-01T03:02:52;13.60;1.00
336;DHT22;156;48.738;9.228;2023-01-01T03:05:25;13.60;1.00
336;DHT22;156;48.738;9.228;2023-01-01T03:08:03;13.50;1.00
336;DHT22;156;48.738;9.228;2023-01-01T03:10:40;13.50;1.00
336;DHT22;156;48.738;9.228;2023-01-01T03:13:13;13.50;1.00
336;DHT22;156;48.738;9.228;2023-01-01T03:15:50;13.50;1.00
336;DHT22;156;48.738;9.228;2023-01-01T03:18:24;13.50;1.00
336;DHT22;156;48.738;9.228;2023-01-01T03:20:54;13.40;1.00
336;DHT22;156;48.738;9.228;2023-01-01T03:23:26;13.50;1.00
336;DHT22;156;48.738;9.228;2023-01-01T03:25:59;13.40;1.00
336;DHT22;156;48.738;9.228;2023-01-01T03:28:31;13.40;1.00
336;DHT22;156;48.738;9.228;2023-01-01T03:31:00;13.40;1.00
336;DHT22;156;48.738;9.228;2023-01-01T03:33:32;13.30;1.00
336;DHT22;156;48.738;9.228;2023-01-01T03:36:06;13.20;1.00
336;DHT22;156;48.738;9.228;2023-01-01T03:38:37;13.20;1.00
336;DHT22;156;48.738;9.228;2023-01-01T03:41:10;13.20;1.00
336;DHT22;156;48.738;9.228;2023-01-01T03:43:41;13.10;1.00
336;DHT22;156;48.738;9.228;2023-01-01T03:46:12;13.10;1.00
336;DHT22;156;48.738;9.228;2023-01-01T03:48:40;13.10;1.00
336;DHT22;156;48.738;9.228;2023-01-01T03:51:26;13.10;1.00
336;DHT22;156;48.738;9.228;2023-01-01T03:54:01;13.20;1.00
336;DHT22;156;48.738;9.228;2023-01-01T03:56:36;13.10;1.00
336;DHT22;156;48.738;9.228;2023-01-01T03:59:10;13.20;1.00
336;DHT22;156;48.738;9.228;2023-01-01T04:01:44;13.20;1.00
336;DHT22;156;48.738;9.228;2023-01-01T04:04:13;13.10;1.00
336;DHT22;156;48.738;9.228;2023-01-01T04:06:40;13.20;1.00
336;DHT22;156;48.738;9.228;2023-01-01T04:09:10;13.20;1.00
336;DHT22;156;48.738;9.228;2023-01-01T04:11:41;13.20;1.00
336;DHT22;156;48.738;9.228;2023-01-01T04:14:30;13.20;1.00
336;DHT22;156;48.738;9.228;2023-01-01T04:16:59;13.20;1.00
336;DHT22;156;48.738;9.228;2023-01-01T04:19:27;13.20;1.00
336;DHT22;156;48.738;9.228;2023-01-01T04:21:53;13.10;1.00
336;DHT22;156;48.738;9.228;2023-01-01T04:24:20;13.20;1.00
336;DHT22;156;48.738;9.228;2023-01-01T04:26:48;13.30;1.00
336;DHT22;156;48.738;9.228;2023-01-01T04:29:15;13.20;1.00
336;DHT22;156;48.738;9.228;2023-01-01T04:31:42;13.30;1.00
336;DHT22;156;48.738;9.228;2023-01-01T04:34:10;13.20;1.00
336;DHT22;156;48.738;9.228;2023-01-01T04:36:37;13.20;1.00
336;DHT22;156;48.738;9.228;2023-01-01T04:39:05;13.20;1.00
336;DHT22;156;48.738;9.228;2023-01-01T04:41:31;13.20;1.00
336;DHT22;156;48.738;9.228;2023-01-01T04:43:59;13.20;1.00
336;DHT22;156;48.738;9.228;2023-01-01T04:46:26;13.10;1.00
336;DHT22;156;48.738;9.228;2023-01-01T04:48:53;13.20;1.00
336;DHT22;156;48.738;9.228;2023-01-01T04:51:21;13.20;1.00
336;DHT22;156;48.738;9.228;2023-01-01T04:53:48;13.20;1.00
336;DHT22;156;48.738;9.228;2023-01-01T04:56:17;13.20;1.00
336;DHT22;156;48.738;9.228;2023-01-01T04:58:44;13.20;1.00
336;DHT22;156;48.738;9.228;2023-01-01T05:01:17;13.20;1.00
336;DHT22;156;48.738;9.228;2023-01-01T05:03:45;13.40;1.00
336;DHT22;156;48.738;9.228;2023-01-01T05:06:12;13.10;1.00
336;DHT22;156;48.738;9.228;2023-01-01T05:08:43;13.10;1.00
336;DHT22;156;48.738;9.228;2023-01-01T05:11:12;13.10;1.00
336;DHT22;156;48.738;9.228;2023-01-01T05:13:41;13.10;1.00
336;DHT22;156;48.738;9.228;2023-01-01T05:16:09;13.10;1.00
336;DHT22;156;48.738;9.228;2023-01-01T05:18:37;13.10;1.00
336;DHT22;156;48.738;9.228;2023-01-01T05:21:07;13.10;1.00
336;DHT22;156;48.738;9.228;2023-01-01T05:23:34;13.00;1.00
336;DHT22;156;48.738;9.228;2023-01-01T05:26:09;13.00;1.00
336;DHT22;156;48.738;9.228;2023-01-01T05:28:36;13.00;1.00
336;DHT22;156;48.738;9.228;2023-01-01T05:31:05;12.90;1.00
336;DHT22;156;48.738;9.228;2023-01-01T05:33:33;12.90;1.00
336;DHT22;156;48.738;9.228;2023-01-01T05:36:01;12.80;1.00
336;DHT22;156;48.738;9.228;2023-01-01T05:38:28;12.70;1.00
336;DHT22;156;48.738;9.228;2023-01-01T05:40:55;12.70;1.00
336;DHT22;156;48.738;9.228;2023-01-01T05:43:24;12.70;1.00
336;DHT22;156;48.738;9.228;2023-01-01T05:45:59;12.70;1.00
336;DHT22;156;48.738;9.228;2023-01-01T05:48:26;12.60;1.00
336;DHT22;156;48.738;9.228;2023-01-01T05:50:53;12.60;1.00
336;DHT22;156;48.738;9.228;2023-01-01T05:55:51;12.50;1.00
336;DHT22;156;48.738;9.228;2023-01-01T05:58:18;12.40;1.00
336;DHT22;156;48.738;9.228;2023-01-01T06:00:47;12.40;1.00
336;DHT22;156;48.738;9.228;2023-01-01T06:03:14;12.40;1.00
336;DHT22;156;48.738;9.228;2023-01-01T06:05:41;12.30;1.00
336;DHT22;156;48.738;9.228;2023-01-01T06:08:08;12.30;1.00
336;DHT22;156;48.738;9.228;2023-01-01T06:10:35;12.20;1.00
336;DHT22;156;48.738;9.228;2023-01-01T06:13:02;12.20;1.00
336;DHT22;156;48.738;9.228;2023-01-01T06:15:29;12.20;1.00
336;DHT22;156;48.738;9.228;2023-01-01T06:17:58;12.20;1.00
336;DHT22;156;48.738;9.228;2023-01-01T06:20:27;12.10;1.00
336;DHT22;156;48.738;9.228;2023-01-01T06:22:55;12.10;1.00
336;DHT22;156;48.738;9.228;2023-01-01T06:25:22;12.20;1.00
336;DHT22;156;48.738;9.228;2023-01-01T06:27:49;12.20;1.00
336;DHT22;156;48.738;9.228;2023-01-01T06:30:16;12.20;1.00
336;DHT22;156;48.738;9.228;2023-01-01T06:32:43;12.20;1.00
336;DHT22;156;48.738;9.228;2023-01-01T06:35:11;12.20;1.00
336;DHT22;156;48.738;9.228;2023-01-01T06:37:38;12.30;1.00
336;DHT22;156;48.738;9.228;2023-01-01T06:40:06;12.20;1.00
336;DHT22;156;48.738;9.228;2023-01-01T06:42:33;12.20;1.00
336;DHT22;156;48.738;9.228;2023-01-01T06:45:00;12.30;1.00
336;DHT22;156;48.738;9.228;2023-01-01T06:47:32;12.30;1.00
336;DHT22;156;48.738;9.228;2023-01-01T06:49:59;12.30;1.00
336;DHT22;156;48.738;9.228;2023-01-01T06:52:27;12.30;1.00
336;DHT22;156;48.738;9.228;2023-01-01T06:54:54;12.30;1.00
336;DHT22;156;48.738;9.228;2023-01-01T06:57:22;12.30;1.00
336;DHT22;156;48.738;9.228;2023-01-01T06:59:49;12.30;1.00
336;DHT22;156;48.738;9.228;2023-01-01T07:02:16;12.40;1.00
336;DHT22;156;48.738;9.228;2023-01-01T07:04:42;12.30;1.00
336;DHT22;156;48.738;9.228;2023-01-01T07:07:09;12.40;1.00
336;DHT22;156;48.738;9.228;2023-01-01T07:09:38;12.40;1.00
336;DHT22;156;48.738;9.228;2023-01-01T07:12:05;12.50;1.00
336;DHT22;156;48.738;9.228;2023-01-01T07:14:32;12.50;1.00
336;DHT22;156;48.738;9.228;2023-01-01T07:16:59;12.50;1.00
336;DHT22;156;48.738;9.228;2023-01-01T07:19:26;12.50;1.00
336;DHT22;156;48.738;9.228;2023-01-01T07:21:53;12.50;1.00
336;DHT22;156;48.738;9.228;2023-01-01T07:24:20;12.50;1.00
336;DHT22;156;48.738;9.228;2023-01-01T07:26:49;12.70;1.00
336;DHT22;156;48.738;9.228;2023-01-01T07:29:16;12.80;1.00
336;DHT22;156;48.738;9.228;2023-01-01T07:31:43;12.80;1.00
336;DHT22;156;48.738;9.228;2023-01-01T07:34:13;12.80;1.00
336;DHT22;156;48.738;9.228;2023-01-01T07:36:40;12.80;1.00
336;DHT22;156;48.738;9.228;2023-01-01T07:39:07;12.90;1.00
336;DHT22;156;48.738;9.228;2023-01-01T07:41:34;12.90;1.00
336;DHT22;156;48.738;9.228;2023-01-01T07:44:03;12.90;1.00
336;DHT22;156;48.738;9.228;2023-01-01T07:46:35;12.80;1.00
336;DHT22;156;48.738;9.228;2023-01-01T07:49:02;12.80;1.00
336;DHT22;156;48.738;9.228;2023-01-01T07:51:29;12.70;1.00
336;DHT22;156;48.738;9.228;2023-01-01T07:53:56;12.70;1.00
336;DHT22;156;48.738;9.228;2023-01-01T07:56:23;12.60;1.00
336;DHT22;156;48.738;9.228;2023-01-01T07:58:50;12.60;1.00
336;DHT22;156;48.738;9.228;2023-01-01T08:01:18;12.50;1.00
336;DHT22;156;48.738;9.228;2023-01-01T08:03:50;12.50;1.00
336;DHT22;156;48.738;9.228;2023-01-01T08:06:18;12.50;1.00
336;DHT22;156;48.738;9.228;2023-01-01T08:08:46;12.40;1.00
336;DHT22;156;48.738;9.228;2023-01-01T08:11:13;12.40;1.00
336;DHT22;156;48.738;9.228;2023-01-01T08:13:40;12.40;1.00
336;DHT22;156;48.738;9.228;2023-01-01T08:16:07;12.40;1.00
336;DHT22;156;48.738;9.228;2023-01-01T08:18:35;12.30;1.00
336;DHT22;156;48.738;9.228;2023-01-01T08:21:03;12.30;1.00
336;DHT22;156;48.738;9.228;2023-01-01T08:23:30;12.30;1.00
336;DHT22;156;48.738;9.228;2023-01-01T08:25:58;12.30;1.00
336;DHT22;156;48.738;9.228;2023-01-01T08:28:26;12.30;1.00
336;DHT22;156;48.738;9.228;2023-01-01T08:30:55;12.30;1.00
336;DHT22;156;48.738;9.228;2023-01-01T08:33:23;12.20;1.00
336;DHT22;156;48.738;9.228;2023-01-01T08:35:52;12.10;1.00
336;DHT22;156;48.738;9.228;2023-01-01T08:38:18;12.10;1.00
336;DHT22;156;48.738;9.228;2023-01-01T08:40:45;12.10;1.00
336;DHT22;156;48.738;9.228;2023-01-01T08:43:12;12.10;1.00
336;DHT22;156;48.738;9.228;2023-01-01T08:45:39;12.00;1.00
336;DHT22;156;48.738;9.228;2023-01-01T08:48:06;12.00;1.00
336;DHT22;156;48.738;9.228;2023-01-01T08:50:33;12.00;1.00
336;DHT22;156;48.738;9.228;2023-01-01T08:53:01;12.10;1.00
336;DHT22;156;48.738;9.228;2023-01-01T08:55:29;12.20;1.00
336;DHT22;156;48.738;9.228;2023-01-01T08:57:57;12.30;1.00
336;DHT22;156;48.738;9.228;2023-01-01T09:00:23;12.40;1.00
336;DHT22;156;48.738;9.228;2023-01-01T09:02:50;12.50;1.00
336;DHT22;156;48.738;9.228;2023-01-01T09:05:17;12.50;1.00
336;DHT22;156;48.738;9.228;2023-01-01T09:07:44;12.60;1.00
336;DHT22;156;48.738;9.228;2023-01-01T09:10:13;12.60;1.00
336;DHT22;156;48.738;9.228;2023-01-01T09:12:40;12.70;1.00
336;DHT22;156;48.738;9.228;2023-01-01T09:15:13;12.70;1.00
336;DHT22;156;48.738;9.228;2023-01-01T09:17:41;12.80;1.00
336;DHT22;156;48.738;9.228;2023-01-01T09:20:08;12.80;1.00
336;DHT22;156;48.738;9.228;2023-01-01T09:22:35;13.00;1.00
336;DHT22;156;48.738;9.228;2023-01-01T09:27:31;13.00;1.00
336;DHT22;156;48.738;9.228;2023-01-01T09:29:58;13.10;1.00
336;DHT22;156;48.738;9.228;2023-01-01T09:32:25;13.10;1.00
336;DHT22;156;48.738;9.228;2023-01-01T09:34:52;13.10;1.00
336;DHT22;156;48.738;9.228;2023-01-01T09:37:19;13.10;1.00
336;DHT22;156;48.738;9.228;2023-01-01T09:39:46;13.10;1.00
336;DHT22;156;48.738;9.228;2023-01-01T09:42:24;13.20;1.00
336;DHT22;156;48.738;9.228;2023-01-01T09:45:05;13.20;1.00
336;DHT22;156;48.738;9.228;2023-01-01T09:47:36;13.30;1.00
336;DHT22;156;48.738;9.228;2023-01-01T09:50:06;13.30;1.00
336;DHT22;156;48.738;9.228;2023-01-01T09:52:42;13.40;1.00
336;DHT22;156;48.738;9.228;2023-01-01T09:55:17;13.40;1.00
336;DHT22;156;48.738;9.228;2023-01-01T09:57:45;13.50;1.00
336;DHT22;156;48.738;9.228;2023-01-01T10:00:18;13.60;1.00
336;DHT22;156;48.738;9.228;2023-01-01T10:03:01;13.60;1.00
336;DHT22;156;48.738;9.228;2023-01-01T10:05:33;13.70;1.00
336;DHT22;156;48.738;9.228;2023-01-01T10:08:07;13.70;1.00
336;DHT22;156;48.738;9.228;2023-01-01T10:10:39;13.80;1.00
336;DHT22;156;48.738;9.228;2023-01-01T10:13:15;13.90;1.00
336;DHT22;156;48.738;9.228;2023-01-01T10:15:53;14.00;1.00
336;DHT22;156;48.738;9.228;2023-01-01T10:18:25;14.10;1.00
336;DHT22;156;48.738;9.228;2023-01-01T10:21:00;14.20;1.00
336;DHT22;156;48.738;9.228;2023-01-01T10:23:32;14.10;1.00
336;DHT22;156;48.738;9.228;2023-01-01T10:26:07;14.10;1.00
336;DHT22;156;48.738;9.228;2023-01-01T10:28:41;14.10;1.00
336;DHT22;156;48.738;9.228;2023-01-01T10:31:16;14.30;1.00
336;DHT22;156;48.738;9.228;2023-01-01T10:33:45;14.20;1.00
336;DHT22;156;48.738;9.228;2023-01-01T10:36:14;14.30;1.00
336;DHT22;156;48.738;9.228;2023-01-01T10:38:42;14.30;1.00
336;DHT22;156;48.738;9.228;2023-01-01T10:41:11;14.40;1.00
336;DHT22;156;48.738;9.228;2023-01-01T10:43:39;14.40;1.00
336;DHT22;156;48.738;9.228;2023-01-01T10:46:08;14.50;1.00
336;DHT22;156;48.738;9.228;2023-01-01T10:48:37;14.50;1.00
336;DHT22;156;48.738;9.228;2023-01-01T10:51:05;14.60;1.00
336;DHT22;156;48.738;9.228;2023-01-01T10:53:35;14.70;1.00
336;DHT22;156;48.738;9.228;2023-01-01T10:56:06;14.70;1.00
336;DHT22;156;48.738;9.228;2023-01-01T10:58:37;14.70;1.00
336;DHT22;156;48.738;9.228;2023-01-01T11:01:06;14.80;1.00
336;DHT22;156;48.738;9.228;2023-01-01T11:03:34;14.80;1.00
336;DHT22;156;48.738;9.228;2023-01-01T11:06:04;14.80;1.00
336;DHT22;156;48.738;9.228;2023-01-01T11:08:34;14.90;1.00
336;DHT22;156;48.738;9.228;2023-01-01T11:11:02;14.90;1.00
336;DHT22;156;48.738;9.228;2023-01-01T11:13:30;15.00;1.00
336;DHT22;156;48.738;9.228;2023-01-01T11:15:59;15.00;1.00
336;DHT22;156;48.738;9.228;2023-01-01T11:18:27;15.10;1.00
336;DHT22;156;48.738;9.228;2023-01-01T11:21:03;15.20;1.00
336;DHT22;156;48.738;9.228;2023-01-01T11:23:32;15.40;1.00
336;DHT22;156;48.738;9.228;2023-01-01T11:26:04;15.40;1.00
336;DHT22;156;48.738;9.228;2023-01-01T11:28:31;15.50;1.00
336;DHT22;156;48.738;9.228;2023-01-01T11:31:04;15.50;1.00
336;DHT22;156;48.738;9.228;2023-01-01T11:33:33;15.60;1.00
336;DHT22;156;48.738;9.228;2023-01-01T11:36:04;15.50;1.00
336;DHT22;156;48.738;9.228;2023-01-01T11:38:32;15.60;1.00
336;DHT22;156;48.738;9.228;2023-01-01T11:41:03;15.70;1.00
336;DHT22;156;48.738;9.228;2023-01-01T11:43:36;15.80;1.00
336;DHT22;156;48.738;9.228;2023-01-01T11:46:07;15.80;1.00
336;DHT22;156;48.738;9.228;2023-01-01T11:48:41;16.00;1.00
336;DHT22;156;48.738;9.228;2023-01-01T11:51:26;16.10;1.00
336;DHT22;156;48.738;9.228;2023-01-01T11:54:08;16.10;1.00
336;DHT22;156;48.738;9.228;2023-01-01T11:56:35;16.30;1.00
336;DHT22;156;48.738;9.228;2023-01-01T11:59:05;16.40;1.00
336;DHT22;156;48.738;9.228;2023-01-01T12:01:41;16.80;1.00
336;DHT22;156;48.738;9.228;2023-01-01T12:04:15;17.10;1.00
336;DHT22;156;48.738;9.228;2023-01-01T12:06:49;17.60;1.00
336;DHT22;156;48.738;9.228;2023-01-01T12:09:21;17.90;1.00
336;DHT22;156;48.738;9.228;2023-01-01T12:11:51;18.30;1.00
336;DHT22;156;48.738;9.228;2023-01-01T12:14:23;18.50;1.00
336;DHT22;156;48.738;9.228;2023-01-01T12:16:55;18.60;1.00
336;DHT22;156;48.738;9.228;2023-01-01T12:19:28;18.90;1.00
336;DHT22;156;48.738;9.228;2023-01-01T12:21:59;18.90;1.00
336;DHT22;156;48.738;9.228;2023-01-01T12:24:31;19.00;1.00
336;DHT22;156;48.738;9.228;2023-01-01T12:27:14;18.90;1.00
336;DHT22;156;48.738;9.228;2023-01-01T12:30:03;18.70;1.00
336;DHT22;156;48.738;9.228;2023-01-01T12:32:44;18.60;1.00
336;DHT22;156;48.738;9.228;2023-01-01T12:35:29;18.50;1.00
336;DHT22;156;48.738;9.228;2023-01-01T12:38:10;18.70;1.00
336;DHT22;156;48.738;9.228;2023-01-01T12:40:43;18.50;1.00
336;DHT22;156;48.738;9.228;2023-01-01T12:43:18;19.00;1.00
336;DHT22;156;48.738;9.228;2023-01-01T12:49:22;19.30;1.00
336;DHT22;156;48.738;9.228;2023-01-01T12:52:01;19.60;1.00
336;DHT22;156;48.738;9.228;2023-01-01T12:55:00;19.40;1.00
336;DHT22;156;48.738;9.228;2023-01-01T12:57:33;19.50;1.00
336;DHT22;156;48.738;9.228;2023-01-01T13:00:11;19.60;1.00
336;DHT22;156;48.738;9.228;2023-01-01T13:02:46;19.60;1.00
336;DHT22;156;48.738;9.228;2023-01-01T13:05:17;19.50;1.00
336;DHT22;156;48.738;9.228;2023-01-01T13:07:49;19.80;1.00
336;DHT22;156;48.738;9.228;2023-01-01T13:10:30;19.80;1.00
336;DHT22;156;48.738;9.228;2023-01-01T13:12:59;19.60;1.00
336;DHT22;156;48.738;9.228;2023-01-01T13:15:50;19.60;1.00
336;DHT22;156;48.738;9.228;2023-01-01T13:18:26;19.30;1.00
336;DHT22;156;48.738;9.228;2023-01-01T13:20:57;19.30;1.00
336;DHT22;156;48.738;9.228;2023-01-01T13:23:46;19.40;1.00
336;DHT22;156;48.738;9.228;2023-01-01T13:26:41;19.50;1.00
336;DHT22;156;48.738;9.228;2023-01-01T13:32:07;19.60;1.00
336;DHT22;156;48.738;9.228;2023-01-01T13:34:38;19.60;1.00
336;DHT22;156;48.738;9.228;2023-01-01T13:43:25;19.80;1.00
336;DHT22;156;48.738;9.228;2023-01-01T13:45:52;19.90;1.00
336;DHT22;156;48.738;9.228;2023-01-01T13:57:59;19.90;1.00
336;DHT22;156;48.738;9.228;2023-01-01T14:00:36;19.70;1.00
336;DHT22;156;48.738;9.228;2023-01-01T14:03:11;19.70;1.00
336;DHT22;156;48.738;9.228;2023-01-01T14:05:42;19.60;1.00
336;DHT22;156;48.738;9.228;2023-01-01T14:08:26;19.50;1.00
336;DHT22;156;48.738;9.228;2023-01-01T14:11:00;19.10;1.00
336;DHT22;156;48.738;9.228;2023-01-01T14:13:28;19.10;1.00
336;DHT22;156;48.738;9.228;2023-01-01T14:16:00;19.00;1.00
336;DHT22;156;48.738;9.228;2023-01-01T14:18:31;19.00;1.00
336;DHT22;156;48.738;9.228;2023-01-01T14:20:59;19.00;1.00
336;DHT22;156;48.738;9.228;2023-01-01T14:23:29;18.80;1.00
336;DHT22;156;48.738;9.228;2023-01-01T14:25:57;18.70;1.00
336;DHT22;156;48.738;9.228;2023-01-01T14:28:28;18.70;1.00
336;DHT22;156;48.738;9.228;2023-01-01T14:30:59;18.70;1.00
336;DHT22;156;48.738;9.228;2023-01-01T14:33:28;18.50;1.00
336;DHT22;156;48.738;9.228;2023-01-01T14:35:58;18.40;1.00
336;DHT22;156;48.738;9.228;2023-01-01T14:38:27;18.30;1.00
336;DHT22;156;48.738;9.228;2023-01-01T14:41:10;18.10;1.00
336;DHT22;156;48.738;9.228;2023-01-01T14:43:41;17.90;1.00
336;DHT22;156;48.738;9.228;2023-01-01T14:46:13;17.80;1.00
336;DHT22;156;48.738;9.228;2023-01-01T14:48:42;17.50;1.00
336;DHT22;156;48.738;9.228;2023-01-01T14:51:12;17.40;1.00
336;DHT22;156;48.738;9.228;2023-01-01T14:53:41;17.30;1.00
336;DHT22;156;48.738;9.228;2023-01-01T14:56:09;17.20;1.00
336;DHT22;156;48.738;9.228;2023-01-01T14:58:39;17.10;1.00
336;DHT22;156;48.738;9.228;2023-01-01T15:01:15;17.10;1.00
336;DHT22;156;48.738;9.228;2023-01-01T15:03:57;17.10;1.00
336;DHT22;156;48.738;9.228;2023-01-01T15:06:24;17.00;1.00
336;DHT22;156;48.738;9.228;2023-01-01T15:08:51;17.00;1.00
336;DHT22;156;48.738;9.228;2023-01-01T15:11:19;16.90;1.00
336;DHT22;156;48.738;9.228;2023-01-01T15:13:54;16.90;1.00
336;DHT22;156;48.738;9.228;2023-01-01T15:16:23;16.80;1.00
336;DHT22;156;48.738;9.228;2023-01-01T15:18:50;16.70;1.00
336;DHT22;156;48.738;9.228;2023-01-01T15:21:31;16.30;1.00
336;DHT22;156;48.738;9.228;2023-01-01T15:24:01;16.10;1.00
336;DHT22;156;48.738;9.228;2023-01-01T15:26:32;16.10;1.00
336;DHT22;156;48.738;9.228;2023-01-01T15:29:00;16.00;1.00
336;DHT22;156;48.738;9.228;2023-01-01T15:31:37;15.80;1.00
336;DHT22;156;48.738;9.228;2023-01-01T15:34:10;15.70;1.00
336;DHT22;156;48.738;9.228;2023-01-01T15:36:42;15.50;1.00
336;DHT22;156;48.738;9.228;2023-01-01T15:39:09;15.30;1.00
336;DHT22;156;48.738;9.228;2023-01-01T15:41:42;15.30;1.00
336;DHT22;156;48.738;9.228;2023-01-01T15:44:25;15.10;1.00
336;DHT22;156;48.738;9.228;2023-01-01T15:47:03;15.00;1.00
336;DHT22;156;48.738;9.228;2023-01-01T15:49:30;15.00;1.00
336;DHT22;156;48.738;9.228;2023-01-01T15:52:00;14.90;1.00
336;DHT22;156;48.738;9.228;2023-01-01T15:54:28;14.80;1.00
336;DHT22;156;48.738;9.228;2023-01-01T15:56:55;14.70;1.00
336;DHT22;156;48.738;9.228;2023-01-01T15:59:26;14.70;1.00
336;DHT22;156;48.738;9.228;2023-01-01T16:02:05;14.70;1.00
336;DHT22;156;48.738;9.228;2023-01-01T16:04:38;14.70;1.00
336;DHT22;156;48.738;9.228;2023-01-01T16:07:14;14.60;1.00
336;DHT22;156;48.738;9.228;2023-01-01T16:09:41;14.60;1.00
336;DHT22;156;48.738;9.228;2023-01-01T16:12:08;14.60;1.00
336;DHT22;156;48.738;9.228;2023-01-01T16:14:35;14.60;1.00
336;DHT22;156;48.738;9.228;2023-01-01T16:17:03;14.50;1.00
336;DHT22;156;48.738;9.228;2023-01-01T16:19:31;14.50;1.00
336;DHT22;156;48.738;9.228;2023-01-01T16:21:59;14.50;1.00
336;DHT22;156;48.738;9.228;2023-01-01T16:24:27;14.50;1.00
336;DHT22;156;48.738;9.228;2023-01-01T16:26:54;14.40;1.00
336;DHT22;156;48.738;9.228;2023-01-01T16:29:21;14.40;1.00
336;DHT22;156;48.738;9.228;2023-01-01T16:31:49;14.30;1.00
336;DHT22;156;48.738;9.228;2023-01-01T16:34:18;14.30;1.00
336;DHT22;156;48.738;9.228;2023-01-01T16:36:44;14.20;1.00
336;DHT22;156;48.738;9.228;2023-01-01T16:39:12;14.20;1.00
336;DHT22;156;48.738;9.228;2023-01-01T16:41:39;14.10;1.00
336;DHT22;156;48.738;9.228;2023-01-01T16:44:09;14.10;1.00
336;DHT22;156;48.738;9.228;2023-01-01T16:46:36;14.10;1.00
336;DHT22;156;48.738;9.228;2023-01-01T16:49:03;14.00;1.00
336;DHT22;156;48.738;9.228;2023-01-01T16:51:32;14.00;1.00
336;DHT22;156;48.738;9.228;2023-01-01T16:54:00;14.00;1.00
336;DHT22;156;48.738;9.228;2023-01-01T16:56:27;14.00;1.00
336;DHT22;156;48.738;9.228;2023-01-01T16:58:56;14.00;1.00
336;DHT22;156;48.738;9.228;2023-01-01T17:01:23;14.00;1.00
336;DHT22;156;48.738;9.228;2023-01-01T17:03:50;13.90;1.00
336;DHT22;156;48.738;9.228;2023-01-01T17:06:18;13.90;1.00
336;DHT22;156;48.738;9.228;2023-01-01T17:08:46;13.90;1.00
336;DHT22;156;48.738;9.228;2023-01-01T17:11:14;14.00;1.00
336;DHT22;156;48.738;9.228;2023-01-01T17:13:42;14.00;1.00
336;DHT22;156;48.738;9.228;2023-01-01T17:16:09;13.90;1.00
336;DHT22;156;48.738;9.228;2023-01-01T17:18:37;13.90;1.00
336;DHT22;156;48.738;9.228;2023-01-01T17:21:05;13.90;1.00
336;DHT22;156;48.738;9.228;2023-01-01T17:23:33;13.80;1.00
336;DHT22;156;48.738;9.228;2023-01-01T17:26:06;13.80;1.00
336;DHT22;156;48.738;9.228;2023-01-01T17:28:33;13.80;1.00
336;DHT22;156;48.738;9.228;2023-01-01T17:31:04;13.80;1.00
336;DHT22;156;48.738;9.228;2023-01-01T17:33:31;13.70;1.00
336;DHT22;156;48.738;9.228;2023-01-01T17:35:58;13.70;1.00
336;DHT22;156;48.738;9.228;2023-01-01T17:38:26;13.70;1.00